createdAt,value
2023-05-12T00:00:15.298Z,8.80
2023-05-12T00:02:45.953Z,8.70
2023-05-12T00:05:14.765Z,8.70
2023-05-12T00:07:43.433Z,9.37
2023-05-12T00:10:12.605Z,9.17
2023-05-12T00:12:41.543Z,9.53
2023-05-12T00:15:11.540Z,9.00
2023-05-12T00:17:41.823Z,9.40
2023-05-12T00:20:11.841Z,9.00
2023-05-12T00:22:40.874Z,9.53
2023-05-12T00:25:10.231Z,9.57
2023-05-12T00:27:38.913Z,8.87
2023-05-12T00:30:08.857Z,8.90
2023-05-12T00:32:37.823Z,9.00
2023-05-12T00:35:08.698Z,8.90
2023-05-12T00:37:37.458Z,9.00
2023-05-12T00:40:07.009Z,8.43
2023-05-12T00:42:36.178Z,9.20
2023-05-12T00:45:07.216Z,8.70
2023-05-12T00:47:36.505Z,8.07
2023-05-12T00:50:08.882Z,9.20
2023-05-12T00:52:38.164Z,9.17
2023-05-12T00:55:07.787Z,8.90
2023-05-12T00:57:36.685Z,9.50
2023-05-12T01:00:07.172Z,9.57
2023-05-12T01:02:36.801Z,10.03
2023-05-12T01:05:08.785Z,10.00
2023-05-12T01:07:40.244Z,9.63
2023-05-12T01:10:19.391Z,9.67
2023-05-12T01:12:48.826Z,9.50
2023-05-12T01:15:19.404Z,9.00
2023-05-12T01:17:54.707Z,9.33
2023-05-12T01:20:28.202Z,9.47
2023-05-12T01:22:59.773Z,9.00
2023-05-12T01:25:34.398Z,9.23
2023-05-12T01:28:06.936Z,8.90
2023-05-12T01:30:41.972Z,8.97
2023-05-12T01:33:12.139Z,8.77
2023-05-12T01:35:41.310Z,8.90
2023-05-12T01:38:09.973Z,9.10
2023-05-12T01:40:41.718Z,9.03
2023-05-12T01:43:12.312Z,9.07
2023-05-12T01:45:41.593Z,8.97
2023-05-12T01:48:10.509Z,9.40
2023-05-12T01:50:39.523Z,9.57
2023-05-12T01:53:13.183Z,9.93
2023-05-12T01:55:47.444Z,9.40
2023-05-12T01:58:19.026Z,9.80
2023-05-12T02:00:47.868Z,9.57
2023-05-12T02:03:19.482Z,10.00
2023-05-12T02:05:48.623Z,10.00
2023-05-12T02:08:17.893Z,9.57
2023-05-12T02:10:46.921Z,9.47
2023-05-12T02:13:17.313Z,10.00
2023-05-12T02:15:46.050Z,9.87
2023-05-12T02:18:14.898Z,9.97
2023-05-12T02:20:44.353Z,10.10
2023-05-12T02:23:13.079Z,9.80
2023-05-12T02:25:41.853Z,10.10
2023-05-12T02:28:11.955Z,10.20
2023-05-12T02:30:48.985Z,9.73
2023-05-12T02:33:17.870Z,9.30
2023-05-12T02:35:46.885Z,9.53
2023-05-12T02:38:15.862Z,8.63
2023-05-12T02:40:44.890Z,8.40
2023-05-12T02:43:13.720Z,9.73
2023-05-12T02:45:42.591Z,8.63
2023-05-12T02:48:13.264Z,9.03
2023-05-12T02:50:42.240Z,8.87
2023-05-12T02:53:10.967Z,8.20
2023-05-12T02:55:40.309Z,7.80
2023-05-12T02:58:08.968Z,7.70
2023-05-12T03:00:37.756Z,7.57
2023-05-12T03:03:06.897Z,7.40
2023-05-12T03:05:37.197Z,7.33
2023-05-12T03:08:06.435Z,6.77
2023-05-12T03:10:35.513Z,7.20
2023-05-12T03:13:04.274Z,7.43
2023-05-12T03:15:32.896Z,7.33
2023-05-12T03:18:01.761Z,7.77
2023-05-12T03:20:31.713Z,6.90
2023-05-12T03:23:02.442Z,7.47
2023-05-12T03:25:31.347Z,7.73
2023-05-12T03:28:00.108Z,7.77
2023-05-12T03:30:29.022Z,7.27
2023-05-12T03:32:57.811Z,7.27
2023-05-12T03:35:26.552Z,6.93
2023-05-12T03:37:55.355Z,7.40
2023-05-12T03:40:25.866Z,7.60
2023-05-12T03:42:54.578Z,7.30
2023-05-12T03:45:23.594Z,7.10
2023-05-12T03:47:52.507Z,7.07
2023-05-12T03:50:21.452Z,7.40
2023-05-12T03:52:50.460Z,7.07
2023-05-12T03:55:19.523Z,7.00
2023-05-12T03:57:51.730Z,6.90
2023-05-12T04:00:21.416Z,7.10
2023-05-12T04:02:51.180Z,6.70
2023-05-12T04:05:20.207Z,6.77
2023-05-12T04:07:49.121Z,6.40
2023-05-12T04:10:18.537Z,6.40
2023-05-12T04:12:47.776Z,6.70
2023-05-12T04:15:18.349Z,6.47
2023-05-12T04:17:47.249Z,6.20
2023-05-12T04:20:16.289Z,6.27
2023-05-12T04:22:45.683Z,6.80
2023-05-12T04:25:14.554Z,6.50
2023-05-12T04:27:43.555Z,6.13
2023-05-12T04:30:12.699Z,6.10
2023-05-12T04:32:44.916Z,5.77
2023-05-12T04:35:13.738Z,6.00
2023-05-12T04:37:43.211Z,6.53
2023-05-12T04:40:12.549Z,6.50
2023-05-12T04:42:41.340Z,6.50
2023-05-12T04:45:17.109Z,6.43
2023-05-12T04:47:47.691Z,5.83
2023-05-12T04:50:16.663Z,6.03
2023-05-12T04:52:45.411Z,6.17
2023-05-12T04:55:14.337Z,6.37
2023-05-12T04:57:43.396Z,6.30
2023-05-12T05:00:17.426Z,6.60
2023-05-12T05:02:56.652Z,6.43
2023-05-12T05:05:31.283Z,6.17
2023-05-12T05:08:05.276Z,6.13
2023-05-12T05:10:35.886Z,6.27
2023-05-12T05:13:04.935Z,5.80
2023-05-12T05:15:34.089Z,5.60
2023-05-12T05:18:07.404Z,5.63
2023-05-12T05:20:40.717Z,6.13
2023-05-12T05:23:12.324Z,5.90
2023-05-12T05:25:41.303Z,6.77
2023-05-12T05:28:10.507Z,5.60
2023-05-12T05:30:45.665Z,5.40
2023-05-12T05:33:17.246Z,5.60
2023-05-12T05:35:46.779Z,5.20
2023-05-12T05:38:16.360Z,5.30
2023-05-12T05:40:52.049Z,5.30
2023-05-12T05:43:21.688Z,4.63
2023-05-12T05:45:51.080Z,5.63
2023-05-12T05:48:23.865Z,5.63
2023-05-12T05:50:54.409Z,5.37
2023-05-12T05:53:25.125Z,5.27
2023-05-12T05:55:54.933Z,5.90
2023-05-12T05:58:27.519Z,5.20
2023-05-12T06:01:00.429Z,5.20
2023-05-12T06:03:31.080Z,5.73
2023-05-12T06:06:00.033Z,5.10
2023-05-12T06:08:28.834Z,4.90
2023-05-12T06:10:57.645Z,5.30
2023-05-12T06:13:26.460Z,5.87
2023-05-12T06:15:55.997Z,5.60
2023-05-12T06:18:26.675Z,5.53
2023-05-12T06:20:57.042Z,5.40
2023-05-12T06:23:25.826Z,5.90
2023-05-12T06:25:54.534Z,5.57
2023-05-12T06:28:29.110Z,5.70
2023-05-12T06:31:00.164Z,5.57
2023-05-12T06:33:28.853Z,5.63
2023-05-12T06:35:59.056Z,5.07
2023-05-12T06:38:27.849Z,5.05
2023-05-12T06:40:56.543Z,5.10
2023-05-12T06:43:25.448Z,5.10
2023-05-12T06:45:58.829Z,4.55
2023-05-12T06:48:27.618Z,4.60
2023-05-12T06:51:00.873Z,4.47
2023-05-12T06:53:31.161Z,4.28
2023-05-12T06:56:00.013Z,4.82
2023-05-12T06:58:28.791Z,4.78
2023-05-12T07:00:57.678Z,4.72
2023-05-12T07:03:26.450Z,4.65
2023-05-12T07:05:55.313Z,4.57
2023-05-12T07:08:25.730Z,4.57
2023-05-12T07:10:54.657Z,4.93
2023-05-12T07:13:23.835Z,4.78
2023-05-12T07:15:52.693Z,4.72
2023-05-12T07:18:23.383Z,4.53
2023-05-12T07:20:52.490Z,4.60
2023-05-12T07:23:21.367Z,4.60
2023-05-12T07:25:51.625Z,4.32
2023-05-12T07:28:20.447Z,4.45
2023-05-12T07:30:49.094Z,4.50
2023-05-12T07:33:17.790Z,4.50
2023-05-12T07:35:48.356Z,4.78
2023-05-12T07:38:23.018Z,4.43
2023-05-12T07:40:53.233Z,4.40
2023-05-12T07:43:22.222Z,4.50
2023-05-12T07:45:50.959Z,4.30
2023-05-12T07:48:19.766Z,4.35
2023-05-12T07:50:48.666Z,4.32
2023-05-12T07:53:17.362Z,4.35
2023-05-12T07:55:47.260Z,4.70
2023-05-12T07:58:17.427Z,4.40
2023-05-12T08:00:46.016Z,4.40
2023-05-12T08:03:16.403Z,4.00
2023-05-12T08:05:45.031Z,3.90
2023-05-12T08:08:16.812Z,4.20
2023-05-12T08:10:45.724Z,4.35
2023-05-12T08:13:15.186Z,3.95
2023-05-12T08:15:47.833Z,4.38
2023-05-12T08:18:16.431Z,4.28
2023-05-12T08:20:45.325Z,4.22
2023-05-12T08:23:14.135Z,4.63
2023-05-12T08:25:44.703Z,4.28
2023-05-12T08:28:14.153Z,3.70
2023-05-12T08:30:52.101Z,3.97
2023-05-12T08:33:21.581Z,3.97
2023-05-12T08:35:50.854Z,4.10
2023-05-12T08:38:19.696Z,4.30
2023-05-12T08:40:58.402Z,3.97
2023-05-12T08:43:30.093Z,4.03
2023-05-12T08:46:02.800Z,4.05
2023-05-12T08:48:36.603Z,3.88
2023-05-12T08:51:13.344Z,3.65
2023-05-12T08:53:43.993Z,4.15
2023-05-12T08:57:15.172Z,3.78
2023-05-12T09:00:24.274Z,3.80
2023-05-12T09:06:55.531Z,3.50
2023-05-12T09:10:54.803Z,4.05
2023-05-12T09:13:30.385Z,3.58
2023-05-12T09:19:39.085Z,3.15
2023-05-12T09:22:09.705Z,3.30
2023-05-12T09:24:39.726Z,3.25
2023-05-12T09:27:09.344Z,3.25
2023-05-12T09:29:45.447Z,3.25
2023-05-12T09:32:34.235Z,3.13
2023-05-12T09:35:12.155Z,3.13
2023-05-12T09:37:41.230Z,3.08
2023-05-12T09:40:11.636Z,3.22
2023-05-12T09:42:40.560Z,2.58
2023-05-12T09:45:11.122Z,2.70
2023-05-12T09:47:41.786Z,2.58
2023-05-12T09:50:12.841Z,2.90
2023-05-12T09:52:41.657Z,2.55
2023-05-12T09:55:12.945Z,2.67
2023-05-12T09:57:43.317Z,2.50
2023-05-12T10:00:33.196Z,2.10
2023-05-12T10:03:13.192Z,2.30
2023-05-12T10:05:49.690Z,2.28
2023-05-12T10:08:22.762Z,2.30
2023-05-12T10:10:53.583Z,2.08
2023-05-12T10:13:24.233Z,2.10
2023-05-12T10:15:56.330Z,2.00
2023-05-12T10:18:25.920Z,2.35
2023-05-12T10:20:57.601Z,2.17
2023-05-12T10:23:28.107Z,2.30
2023-05-12T10:26:02.292Z,2.22
2023-05-12T10:28:31.580Z,2.28
2023-05-12T10:31:00.909Z,2.55
2023-05-12T10:33:29.908Z,2.70
2023-05-12T10:36:02.314Z,3.13
2023-05-12T10:38:38.360Z,3.30
2023-05-12T10:41:08.784Z,3.08
2023-05-12T10:43:42.297Z,2.70
2023-05-12T10:46:36.213Z,2.58
2023-05-12T10:49:57.427Z,2.65
2023-05-12T10:52:27.881Z,2.92
2023-05-12T10:55:31.914Z,3.58
2023-05-12T10:58:56.921Z,2.95
2023-05-12T11:01:26.695Z,3.30
2023-05-12T11:03:59.669Z,3.10
2023-05-12T11:06:30.780Z,3.10
2023-05-12T11:09:01.766Z,2.97
2023-05-12T11:11:30.946Z,3.22
2023-05-12T11:14:00.174Z,3.30
2023-05-12T11:16:29.008Z,3.33
2023-05-12T11:19:05.682Z,3.13
2023-05-12T11:21:35.071Z,3.08
2023-05-12T11:24:05.567Z,3.72
2023-05-12T11:26:35.728Z,3.33
2023-05-12T11:29:05.679Z,3.05
2023-05-12T11:31:34.564Z,3.25
2023-05-12T11:34:12.815Z,2.83
2023-05-12T11:36:43.848Z,3.10
2023-05-12T11:39:18.098Z,2.90
2023-05-12T11:41:46.880Z,2.90
2023-05-12T11:44:20.529Z,2.60
2023-05-12T11:46:59.944Z,2.72
2023-05-12T11:49:31.655Z,2.42
2023-05-12T11:52:04.622Z,2.60
2023-05-12T11:54:35.819Z,2.70
2023-05-12T11:57:05.439Z,2.72
2023-05-12T11:59:36.351Z,2.30
2023-05-12T12:02:05.857Z,2.08
2023-05-12T12:04:36.375Z,2.22
2023-05-12T12:07:05.512Z,2.53
2023-05-12T12:09:37.203Z,2.08
2023-05-12T12:12:08.536Z,2.05
2023-05-12T12:14:41.692Z,2.00
2023-05-12T12:17:10.646Z,1.90
2023-05-12T12:19:39.767Z,1.83
2023-05-12T12:22:08.930Z,1.77
2023-05-12T12:24:39.406Z,1.80
2023-05-12T12:27:08.545Z,2.00
2023-05-12T12:29:37.514Z,2.00
2023-05-12T12:32:07.101Z,1.85
2023-05-12T12:34:36.010Z,1.70
2023-05-12T12:37:05.593Z,1.90
2023-05-12T12:39:34.746Z,1.70
2023-05-12T12:43:16.592Z,1.90
2023-05-12T12:45:47.933Z,2.03
2023-05-12T12:48:19.324Z,1.75
2023-05-12T12:50:48.564Z,2.10
2023-05-12T12:53:18.084Z,1.80
2023-05-12T12:55:47.140Z,1.80
2023-05-12T12:58:16.528Z,1.90
2023-05-12T13:00:46.956Z,1.70
2023-05-12T13:03:17.106Z,2.00
2023-05-12T13:05:47.611Z,2.20
2023-05-12T13:08:17.594Z,1.75
2023-05-12T13:10:46.688Z,1.90
2023-05-12T13:13:16.145Z,2.05
2023-05-12T13:15:46.440Z,2.00
2023-05-12T13:18:15.309Z,1.80
2023-05-12T13:20:44.488Z,1.90
2023-05-12T13:23:13.300Z,1.80
2023-05-12T13:25:44.538Z,2.13
2023-05-12T13:28:13.429Z,1.95
2023-05-12T13:30:42.490Z,1.92
2023-05-12T13:33:12.964Z,1.90
2023-05-12T13:35:41.966Z,2.00
2023-05-12T13:38:11.326Z,2.00
2023-05-12T13:40:40.382Z,1.67
2023-05-12T13:43:09.331Z,1.80
2023-05-12T13:45:38.232Z,1.95
2023-05-12T13:48:07.352Z,1.90
2023-05-12T13:50:37.752Z,2.20
2023-05-12T13:53:06.789Z,2.33
2023-05-12T13:55:40.577Z,2.10
2023-05-12T13:58:09.909Z,2.05
2023-05-12T14:00:38.872Z,2.20
2023-05-12T14:03:08.144Z,2.10
2023-05-12T14:05:38.558Z,2.30
2023-05-12T14:08:07.582Z,2.30
2023-05-12T14:10:36.900Z,2.22
2023-05-12T14:13:07.975Z,2.28
2023-05-12T14:15:47.980Z,2.40
2023-05-12T14:18:17.994Z,2.60
2023-05-12T14:20:48.360Z,2.05
2023-05-12T14:23:17.447Z,2.47
2023-05-12T14:25:46.277Z,2.20
2023-05-12T14:28:15.278Z,2.40
2023-05-12T14:30:45.470Z,2.20
2023-05-12T14:33:14.775Z,2.53
2023-05-12T14:35:52.882Z,2.70
2023-05-12T14:38:30.000Z,2.40
2023-05-12T14:40:59.097Z,2.47
2023-05-12T14:43:28.077Z,2.33
2023-05-12T14:45:56.984Z,2.30
2023-05-12T14:48:27.285Z,2.20
2023-05-12T14:50:56.741Z,2.00
2023-05-12T14:53:25.832Z,2.40
2023-05-12T14:55:56.041Z,2.17
2023-05-12T14:58:25.239Z,3.30
2023-05-12T15:00:55.450Z,2.58
2023-05-12T15:03:24.662Z,2.30
2023-05-12T15:06:05.566Z,2.40
2023-05-12T15:08:35.404Z,2.60
2023-05-12T15:11:06.029Z,2.22
2023-05-12T15:13:38.594Z,2.40
2023-05-12T15:16:08.527Z,2.40
2023-05-12T15:18:37.382Z,2.40
2023-05-12T15:21:06.810Z,2.30
2023-05-12T15:23:35.543Z,2.55
2023-05-12T15:26:27.156Z,2.47
2023-05-12T15:28:58.120Z,2.30
2023-05-12T15:31:30.088Z,2.53
2023-05-12T15:33:59.381Z,2.40
2023-05-12T15:36:29.577Z,2.20
2023-05-12T15:39:01.110Z,2.30
2023-05-12T15:41:31.285Z,2.33
2023-05-12T15:44:00.063Z,2.55
2023-05-12T15:46:29.123Z,2.55
2023-05-12T15:48:58.457Z,2.38
2023-05-12T15:51:28.614Z,2.30
2023-05-12T15:53:57.700Z,2.60
2023-05-12T15:56:26.945Z,2.20
2023-05-12T15:58:57.654Z,2.35
2023-05-12T16:01:32.852Z,2.20
2023-05-12T16:04:05.582Z,2.25
2023-05-12T16:06:36.475Z,2.50
2023-05-12T16:09:05.930Z,2.60
2023-05-12T16:11:35.358Z,2.45
2023-05-12T16:14:05.836Z,2.30
2023-05-12T16:16:43.258Z,2.40
2023-05-12T16:19:12.082Z,2.30
2023-05-12T16:21:44.435Z,2.50
2023-05-12T16:24:13.796Z,2.40
2023-05-12T16:26:42.961Z,2.30
2023-05-12T16:29:13.995Z,2.88
2023-05-12T16:31:43.044Z,2.50
2023-05-12T16:34:11.884Z,2.40
2023-05-12T16:36:41.951Z,2.67
2023-05-12T16:39:14.755Z,9.35
2023-05-12T16:41:43.425Z,2.55
2023-05-12T16:44:13.737Z,2.58
2023-05-12T16:46:43.241Z,2.88
2023-05-12T16:49:12.235Z,3.05
2023-05-12T16:51:41.317Z,2.60
2023-05-12T16:54:10.490Z,2.40
2023-05-12T16:56:39.479Z,2.55
2023-05-12T16:59:08.283Z,2.70
2023-05-12T17:01:39.734Z,2.40
2023-05-12T17:04:13.090Z,2.30
2023-05-12T17:06:41.926Z,2.72
2023-05-12T17:09:10.842Z,2.53
2023-05-12T17:11:43.684Z,2.72
2023-05-12T17:14:12.663Z,2.20
2023-05-12T17:16:44.855Z,5.35
2023-05-12T17:19:14.474Z,15.25
2023-05-12T17:21:43.767Z,2.47
2023-05-12T17:24:13.839Z,2.40
2023-05-12T17:26:43.213Z,2.40
2023-05-12T17:29:12.963Z,2.40
2023-05-12T17:31:43.229Z,1.98
2023-05-12T17:34:12.142Z,2.40
2023-05-12T17:36:40.944Z,2.58
2023-05-12T17:39:09.757Z,3.10
2023-05-12T17:41:38.392Z,2.83
2023-05-12T17:44:07.391Z,21.20
2023-05-12T17:46:36.367Z,2.28
2023-05-12T17:49:06.753Z,2.17
2023-05-12T17:51:35.534Z,1.90
2023-05-12T17:54:06.497Z,2.35
2023-05-12T17:56:38.923Z,2.28
2023-05-12T17:59:07.737Z,2.25
2023-05-12T18:02:29.265Z,2.20
2023-05-12T18:04:59.400Z,2.05
2023-05-12T18:07:28.148Z,1.98
2023-05-12T18:09:57.127Z,1.92
2023-05-12T18:12:26.056Z,1.90
2023-05-12T18:14:54.881Z,1.90
2023-05-12T18:17:24.147Z,2.10
2023-05-12T18:19:53.110Z,2.00
2023-05-12T18:22:23.357Z,2.00
2023-05-12T18:24:52.156Z,2.15
2023-05-12T18:27:20.843Z,2.13
2023-05-12T18:29:49.568Z,2.30
2023-05-12T18:32:18.729Z,2.00
2023-05-12T18:34:47.398Z,2.13
2023-05-12T18:37:17.512Z,2.30
2023-05-12T18:39:47.880Z,2.55
2023-05-12T18:42:16.611Z,2.00
2023-05-12T18:44:45.462Z,2.35
2023-05-12T18:47:15.526Z,2.00
2023-05-12T18:49:44.236Z,2.15
2023-05-12T18:52:13.231Z,1.85
2023-05-12T18:54:42.228Z,2.30
2023-05-12T18:57:12.774Z,2.10
2023-05-12T18:59:41.558Z,2.20
2023-05-12T19:02:10.723Z,2.27
2023-05-12T19:04:40.045Z,2.08
2023-05-12T19:07:10.018Z,2.10
2023-05-12T19:09:39.397Z,2.00
2023-05-12T19:12:11.357Z,2.37
2023-05-12T19:14:44.591Z,2.20
2023-05-12T19:17:19.380Z,2.50
2023-05-12T19:19:52.823Z,2.63
2023-05-12T19:22:36.176Z,2.23
2023-05-12T19:25:18.516Z,2.60
2023-05-12T19:27:56.137Z,2.33
2023-05-12T19:30:32.864Z,2.40
2023-05-12T19:36:21.881Z,2.67
2023-05-12T19:39:04.265Z,2.50
2023-05-12T19:41:33.462Z,2.73
2023-05-12T19:44:06.363Z,2.80
2023-05-12T19:46:55.506Z,2.80
2023-05-12T19:49:27.904Z,2.83
2023-05-12T19:52:10.649Z,3.00
2023-05-12T19:54:49.779Z,2.67
2023-05-12T19:57:27.368Z,2.40
2023-05-12T20:00:05.074Z,2.70
2023-05-12T20:02:48.361Z,2.63
2023-05-12T20:05:19.207Z,2.87
2023-05-12T20:07:51.271Z,2.60
2023-05-12T20:10:22.296Z,2.40
2023-05-12T20:12:51.825Z,2.47
2023-05-12T20:15:21.112Z,2.40
2023-05-12T20:17:51.835Z,2.40
2023-05-12T20:20:20.805Z,2.20
2023-05-12T20:22:49.900Z,2.33
2023-05-12T20:25:19.908Z,2.40
2023-05-12T20:27:49.421Z,2.30
2023-05-12T20:30:18.309Z,2.20
2023-05-12T20:32:49.046Z,2.40
2023-05-12T20:35:19.898Z,2.20
2023-05-12T20:37:49.084Z,2.10
2023-05-12T20:40:18.482Z,2.60
2023-05-12T20:42:47.389Z,2.53
2023-05-12T20:45:17.917Z,2.17
2023-05-12T20:47:46.913Z,2.43
2023-05-12T20:50:16.024Z,2.67
2023-05-12T20:52:47.548Z,2.07
2023-05-12T20:55:16.735Z,2.50
2023-05-12T20:57:45.869Z,2.40
2023-05-12T21:00:15.742Z,2.23
2023-05-12T21:02:44.590Z,2.03
2023-05-12T21:05:13.887Z,2.40
2023-05-12T21:07:42.947Z,2.33
2023-05-12T21:10:13.583Z,2.30
2023-05-12T21:12:42.575Z,2.30
2023-05-12T21:15:12.147Z,2.50
2023-05-12T21:17:41.374Z,2.33
2023-05-12T21:20:11.934Z,2.60
2023-05-12T21:22:41.881Z,2.33
2023-05-12T21:25:12.933Z,2.30
2023-05-12T21:27:46.013Z,2.40
2023-05-12T21:30:15.242Z,2.43
2023-05-12T21:32:44.815Z,2.40
2023-05-12T21:35:14.094Z,2.40
2023-05-12T21:37:43.073Z,2.37
2023-05-12T21:40:14.490Z,2.40
2023-05-12T21:42:48.290Z,2.40
2023-05-12T21:45:18.320Z,2.50
2023-05-12T21:47:50.269Z,2.53
2023-05-12T21:50:21.690Z,2.50
2023-05-12T21:52:51.662Z,2.40
2023-05-12T21:55:24.759Z,2.20
2023-05-12T21:57:54.282Z,2.40
2023-05-12T22:00:26.861Z,2.60
2023-05-12T22:02:56.262Z,2.30
2023-05-12T22:05:27.453Z,2.53
2023-05-12T22:07:57.318Z,2.50
2023-05-12T22:10:28.283Z,2.50
2023-05-12T22:12:58.029Z,2.40
2023-05-12T22:15:27.528Z,2.70
2023-05-12T22:17:57.428Z,3.00
2023-05-12T22:20:27.119Z,2.30
2023-05-12T22:23:00.023Z,2.67
2023-05-12T22:25:31.139Z,2.90
2023-05-12T22:28:01.858Z,2.47
2023-05-12T22:30:31.093Z,2.80
2023-05-12T22:33:00.240Z,2.70
2023-05-12T22:35:29.142Z,2.70
2023-05-12T22:37:58.024Z,2.57
2023-05-12T22:40:27.381Z,2.53
2023-05-12T22:42:57.844Z,2.77
2023-05-12T22:45:27.455Z,2.37
2023-05-12T22:47:56.778Z,2.57
2023-05-12T22:50:26.083Z,2.60
2023-05-12T22:52:59.194Z,2.60
2023-05-12T22:55:30.968Z,2.83
2023-05-12T22:58:01.923Z,2.73
2023-05-12T23:00:33.704Z,2.80
2023-05-12T23:03:03.606Z,2.70
2023-05-12T23:05:32.785Z,2.60
2023-05-12T23:08:03.088Z,2.60
2023-05-12T23:10:32.167Z,2.70
2023-05-12T23:13:02.740Z,2.80
2023-05-12T23:15:31.901Z,2.70
2023-05-12T23:18:01.096Z,2.80
2023-05-12T23:20:30.454Z,2.80
2023-05-12T23:22:59.597Z,2.90
2023-05-12T23:25:28.707Z,2.80
2023-05-12T23:27:58.789Z,2.67
2023-05-12T23:30:32.188Z,2.90
2023-05-12T23:33:01.774Z,3.00
2023-05-12T23:35:30.916Z,2.80
2023-05-12T23:38:00.160Z,2.83
2023-05-12T23:40:29.362Z,2.90
2023-05-12T23:42:58.457Z,3.00
2023-05-12T23:45:29.383Z,2.93
2023-05-12T23:47:58.628Z,3.10
2023-05-12T23:50:28.522Z,3.00
2023-05-12T23:52:59.799Z,3.10
2023-05-12T23:55:29.483Z,3.00
2023-05-12T23:57:58.864Z,2.60
